Decoded Metar for KLRF (JACKSONVILLE in AR, USA) (IATA:LRF) | Meteo·Mobile Aviation Weather
aviador You're here:

KLRF Decoded Metar

JACKSONVILLE in AR, USA
Report Time2019-10-22 13:56:00
UTC Time2019-10-22 14:15:58
Flight Rules vfr VFR
Wind250° at 11 kt
W.Decomp.*RWY 25: 11.0 kt HW 0.2 kt LCW
Visibility9999 m
Phenomena:N/A
Clouds:N/A
Expected CloudBase > 3,200 ft AGL from Temp-Dew spread
CeilingNone
Temp12°C (ISA -2)
Dew Point04°C (58% RH)
AAT6.7°C
QNH1020 hPa
Density Alt-95 ft
Elevation312 ft
Report Wrong Elevation
Raw Report
KLRF 221356Z 25011KT 10SM CLR 12/04 A3011 RMK AO2A SLPNO ALSTG
ESTMD $=

Extra information for KLRF:More info

Metar Taf Metar & Taf Last 4 Metars F.Rules Stats Wind Profile Meteogram Temp Stats Airport Information Weather charts Add Link Nearby VenuesMetar ALERT Operation Metar Decoded Social comments

AIRNAV info for KLRF